CPX436 Details

Departure: Salt Lake City International Airport (KSLC)
Arrival: Sacramento International Airport (KSMF) at N/A
Route: DEZRT1 BAM LLC ANAHO SLMMR3
Notes:


Current Weather Information
KSLC 250354Z 16008KT 10SM FEW180 FEW240 27/03 A2995 RMK AO2 SLP082 T02670028
KSMF 250353Z 18009KT 10SM CLR 27/15 A2984 RMK AO2 SLP105 T02720150